Archival Weather

Norman Y Mineta San Jose Intl

San Jose, California (KSJC)

Report from: Friday, February 2, 2024 12:53 AM PST
Current time: Friday, June 21, 2024 12:01 AM PDT

Current weather – Weather history – Daily summaries
Weather forecast

Temperature10.0°C (50.0°F)
Wind chill8.5°C (47.2°F)
Dew point7.8°C (46.0°F)
Winds 6 kts (3.1 m/s, 6.9 mph) South-Southeast (150°)
Visibility10 mi. (16.1 km)
Clouds Ceiling: Broken clouds 3,700 ft. (1,128 m)
Broken clouds 4,600 ft. (1,402 m)
Altimeter29.80 in.Hg (1009 mB)
Precip last 3 hoursTrace
Relative humidity86 %
Density altitude-298 ft. (-91 m)
Sea-level pressure100.9 kPa (1009 mB, 29.79 in.Hg)
Remarks Fully automated report
Automated weather observing station with precipitation discriminator
Pressure rising more slowly
Flight conditions Visual Meteorological Conditions
Raw dataKSJC 020853Z AUTO 15006KT 10SM BKN037 BKN046 10/08 A2980 RMK AO2 SLP089 60000 T01000078 51007
An error has occurred. This application may no longer respond until reloaded. Reload 🗙